Observation data for Hart on 10/12/2017      Previous  Date  Next       Current Mesonet Observations  Soil Data  Daily Summary Page  Observations in Plain Language
KHRS 120505Z 18009KT 14/08 A301 RMK A01 T01390084  RH  071%=      5-min Rain = 0
KHRS 120510Z 18009KT 14/08 A301 RMK A01 T01390084  RH  071%=      5-min Rain = 0
KHRS 120515Z 18009G14KT 14/09 A301 RMK A01 T01390085  RH  071%=      5-min Rain = 0
KHRS 120520Z 19009KT 14/09 A301 RMK A01 T01390085  RH  071%=      5-min Rain = 0
KHRS 120525Z 19009KT 14/09 A301 RMK A01 T01390086  RH  072%=      5-min Rain = 0
KHRS 120530Z 20009KT 14/09 A301 RMK A01 T01360086  RH  073%=      5-min Rain = 0
KHRS 120535Z 20008KT 13/09 A301 RMK A01 T01320086  RH  075%=      5-min Rain = 0
KHRS 120540Z 20008KT 13/09 A301 RMK A01 T01280086  RH  077%=      5-min Rain = 0
KHRS 120545Z 21008KT 13/09 A301 RMK A01 T01270087  RH  078%=      5-min Rain = 0
KHRS 120550Z 21008KT 13/09 A301 RMK A01 T01270087  RH  078%=      5-min Rain = 0
KHRS 120555Z 21007KT 13/09 A301 RMK A01 T01260087  RH  078%=      5-min Rain = 0
KHRS 120600Z 21007KT 12/09 A301 RMK A01 T01230086  RH  079%=      5-min Rain = 0
KHRS 120605Z 21007KT 12/08 A3009 RMK A01 T01200084  RH  080%=      5-min Rain = 0
KHRS 120610Z 21006KT 12/08 A3009 RMK A01 T01170083  RH  081%=      5-min Rain = 0
KHRS 120615Z 21006KT 11/08 A3009 RMK A01 T01130083  RH  083%=      5-min Rain = 0
KHRS 120620Z 21008KT 11/09 A3009 RMK A01 T01140086  RH  085%=      5-min Rain = 0
KHRS 120625Z 21008KT 12/09 A3009 RMK A01 T01180087  RH  083%=      5-min Rain = 0
KHRS 120630Z 21008KT 12/09 A3008 RMK A01 T01170087  RH  083%=      5-min Rain = 0
KHRS 120635Z 21008KT 12/09 A3008 RMK A01 T01200088  RH  082%=      5-min Rain = 0
KHRS 120640Z 21008KT 12/09 A3008 RMK A01 T01220087  RH  080%=      5-min Rain = 0
KHRS 120645Z 21008KT 12/09 A3008 RMK A01 T01210086  RH  081%=      5-min Rain = 0
KHRS 120650Z 21008KT 12/09 A3008 RMK A01 T01180085  RH  081%=      5-min Rain = 0
KHRS 120655Z 21008KT 12/09 A3008 RMK A01 T01150085  RH  083%=      5-min Rain = 0
KHRS 120700Z 22008KT 11/08 A3008 RMK A01 T01120084  RH  085%=      5-min Rain = 0
KHRS 120705Z 22007KT 11/08 A3008 RMK A01 T01090083  RH  085%=      5-min Rain = 0
KHRS 120710Z 23007KT 11/08 A3008 RMK A01 T01050081  RH  087%=      5-min Rain = 0
KHRS 120715Z 23007KT 10/08 A3009 RMK A01 T01040081  RH  087%=      5-min Rain = 0
KHRS 120720Z 23008KT 10/08 A3009 RMK A01 T01030081  RH  088%=      5-min Rain = 0
KHRS 120725Z 23008KT 10/08 A3009 RMK A01 T01010081  RH  088%=      5-min Rain = 0
KHRS 120730Z 22008KT 10/08 A3008 RMK A01 T01040084  RH  089%=      5-min Rain = 0
KHRS 120735Z 22009KT 11/09 A3008 RMK A01 T01090088  RH  088%=      5-min Rain = 0
KHRS 120740Z 22010KT 12/09 A3008 RMK A01 T01170090  RH  085%=      5-min Rain = 0
KHRS 120745Z 22009KT 12/09 A3008 RMK A01 T01190090  RH  084%=      5-min Rain = 0
KHRS 120750Z 22008KT 12/09 A3009 RMK A01 T01170089  RH  084%=      5-min Rain = 0
KHRS 120755Z 22007KT 11/09 A3009 RMK A01 T01130087  RH  085%=      5-min Rain = 0
KHRS 120800Z 22006KT 11/09 A3009 RMK A01 T01080085  RH  087%=      5-min Rain = 0
KHRS 120805Z 22007KT 11/08 A3009 RMK A01 T01050084  RH  088%=      5-min Rain = 0
KHRS 120810Z 22007KT 10/09 A3008 RMK A01 T01040085  RH  089%=      5-min Rain = 0
KHRS 120815Z 22006KT 10/08 A3008 RMK A01 T01020082  RH  089%=      5-min Rain = 0
KHRS 120820Z 22006KT 10/08 A3008 RMK A01 T00990081  RH  090%=      5-min Rain = 0
KHRS 120825Z 22006KT 10/08 A3008 RMK A01 T00990082  RH  091%=      5-min Rain = 0
KHRS 120830Z 22005KT 10/08 A3008 RMK A01 T00980081  RH  091%=      5-min Rain = 0
KHRS 120835Z 22006KT 10/08 A3008 RMK A01 T00980083  RH  092%=      5-min Rain = 0
KHRS 120840Z 22006KT 10/08 A3008 RMK A01 T00990084  RH  092%=      5-min Rain = 0
KHRS 120845Z 23005KT 10/09 A3008 RMK A01 T00990085  RH  092%=      5-min Rain = 0
KHRS 120850Z 24004KT 10/09 A3008 RMK A01 T00990085  RH  092%=      5-min Rain = 0
KHRS 120855Z 24004KT 10/08 A3008 RMK A01 T00990084  RH  092%=      5-min Rain = 0
KHRS 120900Z 24003KT 10/09 A3008 RMK A01 T00990085  RH  092%=      5-min Rain = 0
KHRS 120905Z 23004KT 10/09 A3008 RMK A01 T00990085  RH  092%=      5-min Rain = 0
KHRS 120910Z 22005KT 10/09 A3008 RMK A01 T01000087  RH  093%=      5-min Rain = 0
KHRS 120915Z 22007KT 10/09 A3008 RMK A01 T01030091  RH  094%=      5-min Rain = 0
KHRS 120920Z 22006KT 11/10 A3008 RMK A01 T01080095  RH  093%=      5-min Rain = 0
KHRS 120925Z 23005KT 11/09 A3008 RMK A01 T01080093  RH  092%=      5-min Rain = 0
KHRS 120930Z 24005KT 11/09 A3008 RMK A01 T01060091  RH  092%=      5-min Rain = 0
KHRS 120935Z 25004KT 10/09 A3008 RMK A01 T01010086  RH  092%=      5-min Rain = 0
KHRS 120940Z 23004KT 10/08 A3007 RMK A01 T00960082  RH  092%=      5-min Rain = 0
KHRS 120945Z 22006KT 10/08 A3007 RMK A01 T00960083  RH  093%=      5-min Rain = 0
KHRS 120950Z 22005KT 10/09 A3007 RMK A01 T00970085  RH  094%=      5-min Rain = 0
KHRS 120955Z 21006KT 10/09 A3007 RMK A01 T00980087  RH  094%=      5-min Rain = 0
KHRS 121000Z 22006KT 10/09 A3007 RMK A01 T01000089  RH  095%=      5-min Rain = 0
KHRS 121005Z 23006KT 10/09 A3008 RMK A01 T01000089  RH  094%=      5-min Rain = 0
KHRS 121010Z 23006KT 10/09 A3008 RMK A01 T01010090  RH  094%=      5-min Rain = 0
KHRS 121015Z 23005KT 10/09 A3007 RMK A01 T01020090  RH  094%=      5-min Rain = 0
KHRS 121020Z 24004KT 10/09 A3007 RMK A01 T01010090  RH  094%=      5-min Rain = 0
KHRS 121025Z 21005KT 10/09 A3007 RMK A01 T01000089  RH  094%=      5-min Rain = 0
KHRS 121030Z 21007KT 10/09 A3007 RMK A01 T01010090  RH  095%=      5-min Rain = 0
KHRS 121035Z 22007KT 11/10 A3007 RMK A01 T01050095  RH  095%=      5-min Rain = 0
KHRS 121040Z 22006KT 11/10 A3008 RMK A01 T01070096  RH  095%=      5-min Rain = 0
KHRS 121045Z 23007KT 11/10 A3007 RMK A01 T01070096  RH  094%=      5-min Rain = 0
KHRS 121050Z 24006KT 11/09 A3008 RMK A01 T01060094  RH  094%=      5-min Rain = 0
KHRS 121055Z 23006KT 11/09 A3008 RMK A01 T01050093  RH  094%=      5-min Rain = 0
KHRS 121100Z 23006KT 10/09 A3008 RMK A01 T01030091  RH  094%=      5-min Rain = 0
KHRS 121105Z 24005KT 10/09 A3008 RMK A01 T01010090  RH  094%=      5-min Rain = 0
KHRS 121110Z 24005KT 10/09 A3008 RMK A01 T00990088  RH  095%=      5-min Rain = 0
KHRS 121115Z 25006KT 10/09 A3008 RMK A01 T00970087  RH  095%=      5-min Rain = 0
KHRS 121120Z 24006KT 10/09 A3008 RMK A01 T00970087  RH  095%=      5-min Rain = 0
KHRS 121125Z 25006KT 10/09 A3008 RMK A01 T00960086  RH  095%=      5-min Rain = 0
KHRS 121130Z 23008KT 10/09 A3008 RMK A01 T00950086  RH  096%=      5-min Rain = 0
KHRS 121135Z 22008KT 10/09 A3008 RMK A01 T00990091  RH  096%=      5-min Rain = 0
KHRS 121140Z 23005KT 10/09 A3008 RMK A01 T01000091  RH  096%=      5-min Rain = 0
KHRS 121145Z 25004KT 10/09 A3008 RMK A01 T00960086  RH  095%=      5-min Rain = 0
KHRS 121150Z 23005KT 09/08 A3008 RMK A01 T00930083  RH  095%=      5-min Rain = 0
KHRS 121155Z 24005KT 09/08 A3008 RMK A01 T00920082  RH  095%=      5-min Rain = 0
KHRS 121200Z 24006KT 09/08 A3008 RMK A01 T00900081  RH  096%=      5-min Rain = 0
KHRS 121205Z 24006KT 09/08 A3008 RMK A01 T00870078  RH  096%=      5-min Rain = 0
KHRS 121210Z 24006KT 09/08 A3008 RMK A01 T00880080  RH  096%=      5-min Rain = 0
KHRS 121215Z 23006KT 09/08 A3008 RMK A01 T00880080  RH  096%=      5-min Rain = 0
KHRS 121220Z 23005KT 09/08 A3008 RMK A01 T00870080  RH  097%=      5-min Rain = 0
KHRS 121225Z 23004KT 09/08 A3009 RMK A01 T00860079  RH  097%=      5-min Rain = 0
KHRS 121230Z 22005KT 09/08 A3009 RMK A01 T00870080  RH  097%=      5-min Rain = 0
KHRS 121235Z 22004KT 09/08 A3009 RMK A01 T00870080  RH  097%=      5-min Rain = 0
KHRS 121240Z 21004KT 09/08 A3009 RMK A01 T00870081  RH  097%=      5-min Rain = 0
KHRS 121245Z 21005KT 09/08 A3009 RMK A01 T00870081  RH  097%=      5-min Rain = 0
KHRS 121250Z 21005KT 09/08 A3009 RMK A01 T00870081  RH  097%=      5-min Rain = 0
KHRS 121255Z 21005KT 09/08 A3009 RMK A01 T00870080  RH  097%=      5-min Rain = 0
KHRS 121300Z 22005KT 09/08 A3009 RMK A01 T00870081  RH  097%=      5-min Rain = 0
KHRS 121305Z 22005KT 09/08 A3009 RMK A01 T00880082  RH  097%=      5-min Rain = 0
KHRS 121310Z 22005KT 09/08 A3009 RMK A01 T00890083  RH  098%=      5-min Rain = 0
KHRS 121315Z 22005KT 09/08 A3009 RMK A01 T00900084  RH  098%=      5-min Rain = 0
KHRS 121320Z 22005KT 09/09 A3009 RMK A01 T00910086  RH  098%=      5-min Rain = 0
KHRS 121325Z 22005KT 09/09 A3009 RMK A01 T00930088  RH  098%=      5-min Rain = 0
KHRS 121330Z 21006KT 10/09 A301 RMK A01 T00960091  RH  098%=      5-min Rain = 0
KHRS 121335Z 22006KT 10/10 A301 RMK A01 T01000095  RH  098%=      5-min Rain = 0
KHRS 121340Z 22006KT 11/10 A301 RMK A01 T01050099  RH  098%=      5-min Rain = 0
KHRS 121345Z 22006KT 11/10 A301 RMK A01 T01080102  RH  097%=      5-min Rain = 0
KHRS 121350Z 22006KT 11/10 A301 RMK A01 T01110104  RH  097%=      5-min Rain = 0
KHRS 121355Z 22006KT 11/11 A3011 RMK A01 T01140105  RH  096%=      5-min Rain = 0
KHRS 121400Z 22006KT 12/11 A3011 RMK A01 T01160107  RH  096%=      5-min Rain = 0
KHRS 121405Z 22006KT 12/11 A3011 RMK A01 T01200109  RH  095%=      5-min Rain = 0
KHRS 121410Z 22007KT 12/11 A3011 RMK A01 T01220111  RH  094%=      5-min Rain = 0
KHRS 121415Z 22009KT 13/11 A3011 RMK A01 T01270114  RH  093%=      5-min Rain = 0
KHRS 121420Z 22009KT 13/12 A3011 RMK A01 T01320115  RH  091%=      5-min Rain = 0
KHRS 121425Z 22010KT 14/11 A3011 RMK A01 T01350114  RH  089%=      5-min Rain = 0
KHRS 121430Z 21009KT 14/11 A3011 RMK A01 T01360114  RH  088%=      5-min Rain = 0
KHRS 121435Z 21010KT 14/12 A3011 RMK A01 T01400117  RH  087%=      5-min Rain = 0
KHRS 121440Z 21010KT 14/12 A3011 RMK A01 T01440119  RH  086%=      5-min Rain = 0
KHRS 121445Z 21010KT 15/12 A3011 RMK A01 T01470118  RH  084%=      5-min Rain = 0
KHRS 121450Z 21010KT 15/12 A3011 RMK A01 T01490119  RH  084%=      5-min Rain = 0
KHRS 121455Z 21011KT 15/12 A3011 RMK A01 T01530120  RH  082%=      5-min Rain = 0
KHRS 121500Z 21010KT 16/12 A3011 RMK A01 T01560121  RH  081%=      5-min Rain = 0
KHRS 121505Z 21011KT 16/12 A3012 RMK A01 T01590122  RH  080%=      5-min Rain = 0
KHRS 121510Z 21009KT 16/12 A3012 RMK A01 T01630123  RH  079%=      5-min Rain = 0
KHRS 121515Z 21010KT 17/13 A3012 RMK A01 T01670125  RH  078%=      5-min Rain = 0
KHRS 121520Z 21010KT 17/13 A3012 RMK A01 T01700125  RH  076%=      5-min Rain = 0
KHRS 121525Z 21010G15KT 17/13 A3012 RMK A01 T01740126  RH  075%=      5-min Rain = 0
KHRS 121530Z 21011KT 18/13 A3012 RMK A01 T01770127  RH  074%=      5-min Rain = 0
KHRS 121535Z 20011KT 18/13 A3012 RMK A01 T01810129  RH  073%=      5-min Rain = 0
KHRS 121540Z 21011KT 18/13 A3012 RMK A01 T01840128  RH  071%=      5-min Rain = 0
KHRS 121545Z 21010KT 19/13 A3012 RMK A01 T01880130  RH  070%=      5-min Rain = 0
KHRS 121550Z 21012KT 19/13 A3011 RMK A01 T01900129  RH  069%=      5-min Rain = 0
KHRS 121555Z 21012KT 19/13 A3011 RMK A01 T01920128  RH  068%=      5-min Rain = 0
KHRS 121600Z 21011KT 20/13 A3011 RMK A01 T01950131  RH  068%=      5-min Rain = 0
KHRS 121605Z 22012KT 20/13 A3011 RMK A01 T01970129  RH  066%=      5-min Rain = 0
KHRS 121610Z 22011KT 20/13 A3011 RMK A01 T02030131  RH  065%=      5-min Rain = 0
KHRS 121615Z 21011KT 21/13 A3011 RMK A01 T02060133  RH  064%=      5-min Rain = 0
KHRS 121620Z 21011KT 21/13 A3011 RMK A01 T02110133  RH  062%=      5-min Rain = 0
KHRS 121625Z 21011KT 22/13 A3011 RMK A01 T02150134  RH  061%=      5-min Rain = 0
KHRS 121630Z 21011KT 22/13 A3011 RMK A01 T02150133  RH  061%=      5-min Rain = 0
KHRS 121635Z 23010KT 22/13 A3011 RMK A01 T02190134  RH  060%=      5-min Rain = 0
KHRS 121640Z 23010KT 22/13 A301 RMK A01 T02240134  RH  058%=      5-min Rain = 0
KHRS 121645Z 22011G16KT 23/13 A301 RMK A01 T02270133  RH  057%=      5-min Rain = 0
KHRS 121650Z 22011KT 23/13 A301 RMK A01 T02270133  RH  056%=      5-min Rain = 0
KHRS 121655Z 22011KT 23/14 A301 RMK A01 T02290135  RH  056%=      5-min Rain = 0
KHRS 121700Z 21011KT 23/14 A301 RMK A01 T02340136  RH  055%=      5-min Rain = 0
KHRS 121705Z 21011KT 24/13 A301 RMK A01 T02350134  RH  054%=      5-min Rain = 0
KHRS 121710Z 21012KT 24/13 A301 RMK A01 T02380134  RH  053%=      5-min Rain = 0
KHRS 121715Z 21012KT 24/13 A301 RMK A01 T02400132  RH  052%=      5-min Rain = 0
KHRS 121720Z 21013KT 24/13 A301 RMK A01 T02400130  RH  051%=      5-min Rain = 0
KHRS 121725Z 21012KT 24/13 A301 RMK A01 T02400129  RH  051%=      5-min Rain = 0
KHRS 121730Z 21012KT 24/13 A301 RMK A01 T02430130  RH  050%=      5-min Rain = 0
KHRS 121735Z 21011KT 25/13 A301 RMK A01 T02460130  RH  049%=      5-min Rain = 0
KHRS 121740Z 21013KT 25/12 A3009 RMK A01 T02470123  RH  047%=      5-min Rain = 0
KHRS 121745Z 21012KT 25/12 A3009 RMK A01 T02480122  RH  046%=      5-min Rain = 0
KHRS 121750Z 22011KT 25/12 A3009 RMK A01 T02500122  RH  046%=      5-min Rain = 0
KHRS 121755Z 22011KT 25/12 A3009 RMK A01 T02530123  RH  045%=      5-min Rain = 0
KHRS 121800Z 22010KT 26/12 A3008 RMK A01 T02550122  RH  044%=      5-min Rain = 0
KHRS 121805Z 21011KT 26/12 A3008 RMK A01 T02560122  RH  044%=      5-min Rain = 0
KHRS 121810Z 22011G16KT 26/12 A3008 RMK A01 T02580123  RH  044%=      5-min Rain = 0
KHRS 121815Z 22011KT 26/12 A3008 RMK A01 T02590124  RH  044%=      5-min Rain = 0
KHRS 121820Z 21010KT 26/13 A3007 RMK A01 T02600128  RH  045%=      5-min Rain = 0
KHRS 121825Z 21011KT 26/13 A3007 RMK A01 T02630127  RH  044%=      5-min Rain = 0
KHRS 121830Z 21009G14KT 26/13 A3007 RMK A01 T02640128  RH  044%=      5-min Rain = 0
KHRS 121835Z 22010G15KT 27/13 A3007 RMK A01 T02690126  RH  042%=      5-min Rain = 0
KHRS 121840Z 21011G20KT 27/13 A3007 RMK A01 T02690126  RH  042%=      5-min Rain = 0
KHRS 121845Z 21010KT 27/13 A3006 RMK A01 T02710126  RH  042%=      5-min Rain = 0
KHRS 121850Z 21011KT 27/13 A3006 RMK A01 T02730125  RH  041%=      5-min Rain = 0
KHRS 121855Z 21011G17KT 27/12 A3006 RMK A01 T02730124  RH  040%=      5-min Rain = 0
KHRS 121900Z 22010G16KT 27/12 A3006 RMK A01 T02730122  RH  040%=      5-min Rain = 0
KHRS 121905Z 21010KT 27/12 A3005 RMK A01 T02740122  RH  040%=      5-min Rain = 0
KHRS 121910Z 22011G18KT 28/12 A3005 RMK A01 T02760121  RH  039%=      5-min Rain = 0
KHRS 121915Z 22011G16KT 28/12 A3005 RMK A01 T02770124  RH  040%=      5-min Rain = 0
KHRS 121920Z 23010KT 28/12 A3004 RMK A01 T02760122  RH  039%=      5-min Rain = 0
KHRS 121925Z 21011G16KT 28/12 A3004 RMK A01 T02790124  RH  039%=      5-min Rain = 0
KHRS 121930Z 21011KT 28/12 A3004 RMK A01 T02790124  RH  039%=      5-min Rain = 0
KHRS 121935Z 21010KT 28/12 A3003 RMK A01 T02810122  RH  038%=      5-min Rain = 0
KHRS 121940Z 21012G17KT 28/12 A3003 RMK A01 T02830121  RH  037%=      5-min Rain = 0
KHRS 121945Z 21010KT 28/12 A3003 RMK A01 T02840122  RH  038%=      5-min Rain = 0
KHRS 121950Z 20012G17KT 28/12 A3003 RMK A01 T02840118  RH  036%=      5-min Rain = 0
KHRS 121955Z 20011G16KT 28/12 A3002 RMK A01 T02830119  RH  037%=      5-min Rain = 0
KHRS 122000Z 21012KT 28/12 A3002 RMK A01 T02840116  RH  036%=      5-min Rain = 0
KHRS 122005Z 21011G16KT 28/12 A3002 RMK A01 T02840116  RH  036%=      5-min Rain = 0
KHRS 122010Z 21011G16KT 28/12 A3002 RMK A01 T02840115  RH  035%=      5-min Rain = 0
KHRS 122015Z 21010G17KT 29/12 A3001 RMK A01 T02870119  RH  036%=      5-min Rain = 0
KHRS 122020Z 21013KT 29/11 A3001 RMK A01 T02860112  RH  035%=      5-min Rain = 0
KHRS 122025Z 22011G16KT 29/11 A3001 RMK A01 T02850110  RH  034%=      5-min Rain = 0
KHRS 122030Z 21012G18KT 29/11 A3001 RMK A01 T02850109  RH  034%=      5-min Rain = 0
KHRS 122035Z 21011G17KT 29/12 A3001 RMK A01 T02860115  RH  035%=      5-min Rain = 0
KHRS 122040Z 20012G17KT 29/11 A3001 RMK A01 T02850114  RH  035%=      5-min Rain = 0
KHRS 122045Z 20012KT 29/12 A3001 RMK A01 T02870116  RH  035%=      5-min Rain = 0
KHRS 122050Z 21014G19KT 29/11 A3001 RMK A01 T02870110  RH  034%=      5-min Rain = 0
KHRS 122055Z 21013G18KT 29/11 A3001 RMK A01 T02870114  RH  035%=      5-min Rain = 0
KHRS 122100Z 20012G18KT 29/12 A3001 RMK A01 T02880115  RH  035%=      5-min Rain = 0
KHRS 122105Z 21011G18KT 29/12 A30 RMK A01 T02890117  RH  035%=      5-min Rain = 0
KHRS 122110Z 20014G19KT 29/11 A30 RMK A01 T02890112  RH  034%=      5-min Rain = 0
KHRS 122115Z 20010KT 29/11 A30 RMK A01 T02890112  RH  034%=      5-min Rain = 0
KHRS 122120Z 21012G18KT 29/11 A30 RMK A01 T02900111  RH  034%=      5-min Rain = 0
KHRS 122125Z 20013G18KT 29/11 A30 RMK A01 T02890112  RH  034%=      5-min Rain = 0
KHRS 122130Z 19013G18KT 29/11 A30 RMK A01 T02880108  RH  033%=      5-min Rain = 0
KHRS 122135Z 20012KT 29/11 A30 RMK A01 T02880109  RH  033%=      5-min Rain = 0
KHRS 122140Z 20013KT 29/11 A30 RMK A01 T02870109  RH  034%=      5-min Rain = 0
KHRS 122145Z 20013G19KT 29/11 A30 RMK A01 T02880109  RH  034%=      5-min Rain = 0
KHRS 122150Z 21011G17KT 29/11 A30 RMK A01 T02880110  RH  034%=      5-min Rain = 0
KHRS 122155Z 21010KT 29/11 A30 RMK A01 T02890111  RH  034%=      5-min Rain = 0
KHRS 122200Z 20011G18KT 29/11 A30 RMK A01 T02880109  RH  033%=      5-min Rain = 0
KHRS 122205Z 21013G18KT 29/11 A30 RMK A01 T02860109  RH  034%=      5-min Rain = 0
KHRS 122210Z 19010G18KT 29/11 A30 RMK A01 T02860108  RH  034%=      5-min Rain = 0
KHRS 122215Z 19013G18KT 29/10 A30 RMK A01 T02860103  RH  033%=      5-min Rain = 0
KHRS 122220Z 20012KT 29/11 A30 RMK A01 T02850105  RH  033%=      5-min Rain = 0
KHRS 122225Z 20012G17KT 28/10 A30 RMK A01 T02840103  RH  033%=      5-min Rain = 0
KHRS 122230Z 19011G16KT 28/10 A30 RMK A01 T02840101  RH  033%=      5-min Rain = 0
KHRS 122235Z 20011KT 28/10 A30 RMK A01 T02840104  RH  033%=      5-min Rain = 0
KHRS 122240Z 21013KT 28/10 A30 RMK A01 T02830104  RH  033%=      5-min Rain = 0
KHRS 122245Z 21010G17KT 28/11 A30 RMK A01 T02810109  RH  035%=      5-min Rain = 0
KHRS 122250Z 20011KT 28/11 A30 RMK A01 T02810106  RH  034%=      5-min Rain = 0
KHRS 122255Z 19009KT 28/10 A30 RMK A01 T02800103  RH  034%=      5-min Rain = 0
KHRS 122300Z 20010KT 28/10 A30 RMK A01 T02800103  RH  034%=      5-min Rain = 0
KHRS 122305Z 20011KT 28/11 A30 RMK A01 T02780105  RH  035%=      5-min Rain = 0
KHRS 122310Z 20012KT 28/10 A30 RMK A01 T02770102  RH  034%=      5-min Rain = 0
KHRS 122315Z 20010KT 28/11 A30 RMK A01 T02750105  RH  035%=      5-min Rain = 0
KHRS 122320Z 19010KT 27/10 A30 RMK A01 T02740104  RH  035%=      5-min Rain = 0
KHRS 122325Z 18009KT 27/10 A30 RMK A01 T02740104  RH  035%=      5-min Rain = 0
KHRS 122330Z 18008KT 27/11 A30 RMK A01 T02720106  RH  036%=      5-min Rain = 0
KHRS 122335Z 19008KT 27/11 A30 RMK A01 T02700109  RH  037%=      5-min Rain = 0
KHRS 122340Z 19008KT 27/11 A30 RMK A01 T02680109  RH  038%=      5-min Rain = 0
KHRS 122345Z 19008KT 26/11 A30 RMK A01 T02640110  RH  039%=      5-min Rain = 0
KHRS 122350Z 18007KT 26/11 A30 RMK A01 T02610110  RH  040%=      5-min Rain = 0
KHRS 122355Z 18007KT 26/11 A30 RMK A01 T02580109  RH  040%=      5-min Rain = 0
KHRS 130000Z 18007KT 26/11 A30 RMK A01 T02550111  RH  041%=      5-min Rain = 0
KHRS 130005Z 18006KT 25/11 A3001 RMK A01 T02510113  RH  043%=      5-min Rain = 0
KHRS 130010Z 17005KT 25/12 A3001 RMK A01 T02470115  RH  044%=      5-min Rain = 0
KHRS 130015Z 17006KT 24/12 A3001 RMK A01 T02410116  RH  046%=      5-min Rain = 0
KHRS 130020Z 17006KT 24/12 A3001 RMK A01 T02360119  RH  049%=      5-min Rain = 0
KHRS 130025Z 17006KT 23/12 A3001 RMK A01 T02320123  RH  051%=      5-min Rain = 0
KHRS 130030Z 17005KT 23/13 A3001 RMK A01 T02280125  RH  053%=      5-min Rain = 0
KHRS 130035Z 17005KT 23/13 A3001 RMK A01 T02250127  RH  055%=      5-min Rain = 0
KHRS 130040Z 17006KT 22/13 A3001 RMK A01 T02210128  RH  057%=      5-min Rain = 0
KHRS 130045Z 17006KT 22/13 A3001 RMK A01 T02180129  RH  058%=      5-min Rain = 0
KHRS 130050Z 17006KT 22/13 A3001 RMK A01 T02150129  RH  059%=      5-min Rain = 0
KHRS 130055Z 17005KT 21/13 A3001 RMK A01 T02130130  RH  060%=      5-min Rain = 0
KHRS 130100Z 17006KT 21/13 A3002 RMK A01 T02110130  RH  061%=      5-min Rain = 0
KHRS 130105Z 17005KT 21/13 A3002 RMK A01 T02100130  RH  062%=      5-min Rain = 0
KHRS 130110Z 17006KT 21/13 A3002 RMK A01 T02070131  RH  063%=      5-min Rain = 0
KHRS 130115Z 17006KT 21/13 A3002 RMK A01 T02050131  RH  063%=      5-min Rain = 0
KHRS 130120Z 17006KT 20/13 A3002 RMK A01 T02030130  RH  064%=      5-min Rain = 0
KHRS 130125Z 17006KT 20/13 A3002 RMK A01 T02000131  RH  065%=      5-min Rain = 0
KHRS 130130Z 17006KT 20/13 A3002 RMK A01 T01990131  RH  066%=      5-min Rain = 0
KHRS 130135Z 17005KT 20/13 A3002 RMK A01 T01960131  RH  067%=      5-min Rain = 0
KHRS 130140Z 17005KT 20/13 A3002 RMK A01 T01950131  RH  068%=      5-min Rain = 0
KHRS 130145Z 17006KT 19/13 A3003 RMK A01 T01930131  RH  069%=      5-min Rain = 0
KHRS 130150Z 17006KT 19/13 A3003 RMK A01 T01930131  RH  069%=      5-min Rain = 0
KHRS 130155Z 17006KT 19/13 A3003 RMK A01 T01930131  RH  069%=      5-min Rain = 0
KHRS 130200Z 17006KT 19/13 A3003 RMK A01 T01920132  RH  069%=      5-min Rain = 0
KHRS 130205Z 17006KT 19/13 A3003 RMK A01 T01910132  RH  070%=      5-min Rain = 0
KHRS 130210Z 17007KT 19/13 A3003 RMK A01 T01900132  RH  070%=      5-min Rain = 0
KHRS 130215Z 17007KT 19/13 A3003 RMK A01 T01900132  RH  071%=      5-min Rain = 0
KHRS 130220Z 17007KT 19/13 A3003 RMK A01 T01900132  RH  070%=      5-min Rain = 0
KHRS 130225Z 17007KT 19/13 A3003 RMK A01 T01910132  RH  070%=      5-min Rain = 0
KHRS 130230Z 17006KT 19/13 A3003 RMK A01 T01910132  RH  070%=      5-min Rain = 0
KHRS 130235Z 17007G12KT 19/13 A3003 RMK A01 T01920132  RH  069%=      5-min Rain = 0
KHRS 130240Z 17007KT 19/13 A3004 RMK A01 T01930131  RH  069%=      5-min Rain = 0
KHRS 130245Z 17007KT 19/13 A3004 RMK A01 T01940131  RH  068%=      5-min Rain = 0
KHRS 130250Z 18008KT 19/13 A3004 RMK A01 T01940131  RH  068%=      5-min Rain = 0
KHRS 130255Z 17006KT 19/13 A3004 RMK A01 T01930131  RH  069%=      5-min Rain = 0
KHRS 130300Z 17006KT 19/13 A3004 RMK A01 T01910131  RH  070%=      5-min Rain = 0
KHRS 130305Z 17006KT 19/13 A3004 RMK A01 T01890131  RH  070%=      5-min Rain = 0
KHRS 130310Z 17007KT 19/13 A3004 RMK A01 T01880131  RH  071%=      5-min Rain = 0
KHRS 130315Z 18007KT 19/13 A3005 RMK A01 T01870132  RH  072%=      5-min Rain = 0
KHRS 130320Z 18007KT 19/13 A3005 RMK A01 T01870132  RH  072%=      5-min Rain = 0
KHRS 130325Z 18006KT 19/13 A3005 RMK A01 T01880132  RH  071%=      5-min Rain = 0
KHRS 130330Z 18007KT 19/13 A3005 RMK A01 T01880133  RH  072%=      5-min Rain = 0
KHRS 130335Z 18006KT 19/13 A3005 RMK A01 T01860133  RH  073%=      5-min Rain = 0
KHRS 130340Z 18006KT 19/13 A3005 RMK A01 T01850133  RH  073%=      5-min Rain = 0
KHRS 130345Z 18006KT 18/13 A3005 RMK A01 T01830134  RH  074%=      5-min Rain = 0
KHRS 130350Z 18007KT 18/13 A3005 RMK A01 T01830134  RH  075%=      5-min Rain = 0
KHRS 130355Z 19008G13KT 18/14 A3005 RMK A01 T01840135  RH  074%=      5-min Rain = 0
KHRS 130400Z 19010KT 19/14 A3005 RMK A01 T01860135  RH  074%=      5-min Rain = 0
KHRS 130405Z 19011KT 19/14 A3005 RMK A01 T01870136  RH  074%=      5-min Rain = 0
KHRS 130410Z 18010KT 19/14 A3005 RMK A01 T01870136  RH  074%=      5-min Rain = 0
KHRS 130415Z 18009KT 19/14 A3006 RMK A01 T01870136  RH  074%=      5-min Rain = 0
KHRS 130420Z 19009KT 19/14 A3006 RMK A01 T01870136  RH  074%=      5-min Rain = 0
KHRS 130425Z 19009KT 18/14 A3006 RMK A01 T01830136  RH  075%=      5-min Rain = 0
KHRS 130430Z 19009KT 18/14 A3006 RMK A01 T01800136  RH  077%=      5-min Rain = 0
KHRS 130435Z 19009KT 18/14 A3006 RMK A01 T01790135  RH  077%=      5-min Rain = 0
KHRS 130440Z 19010KT 18/14 A3006 RMK A01 T01790136  RH  077%=      5-min Rain = 0
KHRS 130445Z 19009KT 18/14 A3006 RMK A01 T01790136  RH  077%=      5-min Rain = 0
KHRS 130450Z 19009KT 18/14 A3006 RMK A01 T01790136  RH  077%=      5-min Rain = 0
KHRS 130455Z 19009KT 18/14 A3006 RMK A01 T01800136  RH  077%=      5-min Rain = 0
KHRS 130500Z 19009KT 18/14 A3006 RMK A01 T01810136  RH  077%=      5-min Rain = 0

Page generated in 0.0588 seconds.